Harmonsburg, Pennsylvania
Current Conditions -  °F | °C
As of 1:53 AM on Sunday 26 Oct 2014 (Local Time) from KGKJ Reporting Station
Clear Clear  
Wind Chill: 46°   Ceiling: Unl
Heat Index: 49°   Visibility: 10mi
Dew Point: 35°   Wind: 7mph
Humidity: 59%   Direction: 270°W
Pressure: 29.75"   Gusts: NA
Location:  41.66°N, 80.32°W
Report Text: KGKJ 260553Z AUTO 27006KT 10SM CLR 09/02 A2975 RMK AO2 SLP074 T00940017 10144 20094 50003 TSNO
Loading
Personal Weather Stations






























Interactive Weather Map
Tropical Storm Tracking
New forecast layout! Learn more

10-Day Weather Forecast

Advertisements
Track Severe Weather on mobile